Hovedside
METAR-TAF:

METAR-TAF

Lufthavner :

Ronneby lufthavn

Ronneby, Sverige

breddegrad: 56-16N, lengdegrad: 015-17E, høyde over havet: 58 m

Gjeldene værobservasjon

Denne rapporten ble laget for 23 minutter siden, klokken 06:20 UTC
Vind 10 kt fra Nordøst
Temperatur 4°C
Luftfuktighet 100%
Trykk 1018 hPa
Sikt 10 km eller mer
Få skyer i en høyde av 3000 ft
Brutte skyer i en høyde av 3500 ft

METAR: ESDF 150620Z 05010KT 9999 FEW030 BKN035 04/04 Q1018

Tid: 07:43 (06:43 UTC)

Varsel

Denne rapporten ble laget for 1 time og 13 minutter siden, klokken 05:30 UTC
Varsel gyldig fra 15. klokken 06 UTC til 15. klokken 15 UTC
Vind 8 kt fra Øst-nordøst
Sikt 10 km eller mer
Brutte skyer i en høyde av 2000 ft
Sannsynlighet 30%
fra 15. klokken 06 UTC til 15. klokken 09 UTC
Sikt: 7000 m
Brutte skyer i en høyde av 1000 ft
dis

TAF: ESDF 150530Z 1506/1515 07008KT 9999 BKN020 PROB30 1506/1509 7000 BR BKN010 RMK MIL

Værobservasjoner og værvarsel for over 4000 flyplasser (METAR- og TAF-rapporter).

Tilgjengelige stasjoner er representert av de røde og gule prikkene på kartet.

Hold musepekeren over prikken for å se navnet på stasjonen.

Klikk så for å se værobservasjoner og -varsler.

For å forandre kartet kan du klikke på den grønne knappen med svart kryss for å zoome inn, på den grønne knappen med strek for å zoome ut, eller på de grønne pilene for å se tilstøtende kart.


METAR-TAF: